sensor_id;sensor_type;location;lat;lon;timestamp;temperature;humidity
3528;DHT22;1778;47.966;7.854;2023-01-24T00:00:57;2.90;99.90
3528;DHT22;1778;47.966;7.854;2023-01-24T00:01:59;2.80;99.90
3528;DHT22;1778;47.966;7.854;2023-01-24T00:03:01;2.80;99.90
3528;DHT22;1778;47.966;7.854;2023-01-24T00:04:02;2.70;99.90
3528;DHT22;1778;47.966;7.854;2023-01-24T00:05:05;2.70;99.90
3528;DHT22;1778;47.966;7.854;2023-01-24T00:06:07;2.70;99.90
3528;DHT22;1778;47.966;7.854;2023-01-24T00:07:08;2.70;99.90
3528;DHT22;1778;47.966;7.854;2023-01-24T00:08:15;2.70;99.90
3528;DHT22;1778;47.966;7.854;2023-01-24T00:09:17;2.70;99.90
3528;DHT22;1778;47.966;7.854;2023-01-24T00:10:18;2.70;99.90
3528;DHT22;1778;47.966;7.854;2023-01-24T00:11:20;2.70;99.90
3528;DHT22;1778;47.966;7.854;2023-01-24T00:12:21;2.60;99.90
3528;DHT22;1778;47.966;7.854;2023-01-24T00:13:23;2.60;99.90
3528;DHT22;1778;47.966;7.854;2023-01-24T00:14:24;2.60;99.90
3528;DHT22;1778;47.966;7.854;2023-01-24T00:15:26;2.50;99.90
3528;DHT22;1778;47.966;7.854;2023-01-24T00:16:27;2.60;99.90
3528;DHT22;1778;47.966;7.854;2023-01-24T00:17:29;2.60;99.90
3528;DHT22;1778;47.966;7.854;2023-01-24T00:18:31;2.60;99.90
3528;DHT22;1778;47.966;7.854;2023-01-24T00:19:34;2.60;99.90
3528;DHT22;1778;47.966;7.854;2023-01-24T00:20:36;2.60;99.90
3528;DHT22;1778;47.966;7.854;2023-01-24T00:21:38;2.50;99.90
3528;DHT22;1778;47.966;7.854;2023-01-24T00:22:39;2.60;99.90
3528;DHT22;1778;47.966;7.854;2023-01-24T00:23:46;2.60;99.90
3528;DHT22;1778;47.966;7.854;2023-01-24T00:24:48;2.60;99.90
3528;DHT22;1778;47.966;7.854;2023-01-24T00:25:49;2.50;99.90
3528;DHT22;1778;47.966;7.854;2023-01-24T00:26:51;2.60;99.90
3528;DHT22;1778;47.966;7.854;2023-01-24T00:27:52;2.60;99.90
3528;DHT22;1778;47.966;7.854;2023-01-24T00:28:53;2.60;99.90
3528;DHT22;1778;47.966;7.854;2023-01-24T00:29:57;2.50;99.90
3528;DHT22;1778;47.966;7.854;2023-01-24T00:30:59;2.50;99.90
3528;DHT22;1778;47.966;7.854;2023-01-24T00:32:01;2.50;99.90
3528;DHT22;1778;47.966;7.854;2023-01-24T00:33:02;2.50;99.90
3528;DHT22;1778;47.966;7.854;2023-01-24T00:34:04;2.50;99.90
3528;DHT22;1778;47.966;7.854;2023-01-24T00:35:06;2.50;99.90
3528;DHT22;1778;47.966;7.854;2023-01-24T00:36:08;2.60;99.90
3528;DHT22;1778;47.966;7.854;2023-01-24T00:37:10;2.60;99.90
3528;DHT22;1778;47.966;7.854;2023-01-24T00:38:12;2.50;99.90
3528;DHT22;1778;47.966;7.854;2023-01-24T00:39:13;2.50;99.90
3528;DHT22;1778;47.966;7.854;2023-01-24T00:40:15;2.50;99.90
3528;DHT22;1778;47.966;7.854;2023-01-24T00:41:18;2.50;99.90
3528;DHT22;1778;47.966;7.854;2023-01-24T00:42:19;2.50;99.90
3528;DHT22;1778;47.966;7.854;2023-01-24T00:43:21;2.50;99.90
3528;DHT22;1778;47.966;7.854;2023-01-24T00:44:23;2.50;99.90
3528;DHT22;1778;47.966;7.854;2023-01-24T00:45:24;2.50;99.90
3528;DHT22;1778;47.966;7.854;2023-01-24T00:46:27;2.40;99.90
3528;DHT22;1778;47.966;7.854;2023-01-24T00:47:28;2.50;99.90
3528;DHT22;1778;47.966;7.854;2023-01-24T00:48:30;2.40;99.90
3528;DHT22;1778;47.966;7.854;2023-01-24T00:49:31;2.40;99.90
3528;DHT22;1778;47.966;7.854;2023-01-24T00:50:33;2.50;99.90
3528;DHT22;1778;47.966;7.854;2023-01-24T00:51:35;2.50;99.90
3528;DHT22;1778;47.966;7.854;2023-01-24T00:52:37;2.50;99.90
3528;DHT22;1778;47.966;7.854;2023-01-24T00:53:39;2.50;99.90
3528;DHT22;1778;47.966;7.854;2023-01-24T00:54:40;2.50;99.90
3528;DHT22;1778;47.966;7.854;2023-01-24T00:55:46;2.50;99.90
3528;DHT22;1778;47.966;7.854;2023-01-24T00:56:48;2.50;99.90
3528;DHT22;1778;47.966;7.854;2023-01-24T00:57:49;2.50;99.90
3528;DHT22;1778;47.966;7.854;2023-01-24T00:58:51;2.60;99.90
3528;DHT22;1778;47.966;7.854;2023-01-24T00:59:52;2.50;99.90
3528;DHT22;1778;47.966;7.854;2023-01-24T01:00:55;2.50;99.90
3528;DHT22;1778;47.966;7.854;2023-01-24T01:01:57;2.50;99.90
3528;DHT22;1778;47.966;7.854;2023-01-24T01:03:00;2.50;99.90
3528;DHT22;1778;47.966;7.854;2023-01-24T01:04:01;2.50;99.90
3528;DHT22;1778;47.966;7.854;2023-01-24T01:05:04;2.50;99.90
3528;DHT22;1778;47.966;7.854;2023-01-24T01:06:10;2.50;99.90
3528;DHT22;1778;47.966;7.854;2023-01-24T01:07:13;2.50;99.90
3528;DHT22;1778;47.966;7.854;2023-01-24T01:08:15;2.50;99.90
3528;DHT22;1778;47.966;7.854;2023-01-24T01:09:16;2.60;99.90
3528;DHT22;1778;47.966;7.854;2023-01-24T01:10:18;2.50;99.90
3528;DHT22;1778;47.966;7.854;2023-01-24T01:11:20;2.50;99.90
3528;DHT22;1778;47.966;7.854;2023-01-24T01:12:21;2.50;99.90
3528;DHT22;1778;47.966;7.854;2023-01-24T01:13:23;2.50;99.90
3528;DHT22;1778;47.966;7.854;2023-01-24T01:14:25;2.50;99.90
3528;DHT22;1778;47.966;7.854;2023-01-24T01:15:26;2.40;99.90
3528;DHT22;1778;47.966;7.854;2023-01-24T01:16:28;2.40;99.90
3528;DHT22;1778;47.966;7.854;2023-01-24T01:17:29;2.40;99.90
3528;DHT22;1778;47.966;7.854;2023-01-24T01:18:31;2.40;99.90
3528;DHT22;1778;47.966;7.854;2023-01-24T01:19:33;2.40;99.90
3528;DHT22;1778;47.966;7.854;2023-01-24T01:20:34;2.50;99.90
3528;DHT22;1778;47.966;7.854;2023-01-24T01:21:36;2.50;99.90
3528;DHT22;1778;47.966;7.854;2023-01-24T01:22:37;2.50;99.90
3528;DHT22;1778;47.966;7.854;2023-01-24T01:23:38;2.50;99.90
3528;DHT22;1778;47.966;7.854;2023-01-24T01:24:40;2.50;99.90
3528;DHT22;1778;47.966;7.854;2023-01-24T01:25:41;2.50;99.90
3528;DHT22;1778;47.966;7.854;2023-01-24T01:26:44;2.50;99.90
3528;DHT22;1778;47.966;7.854;2023-01-24T01:27:46;2.50;99.90
3528;DHT22;1778;47.966;7.854;2023-01-24T01:28:48;2.50;99.90
3528;DHT22;1778;47.966;7.854;2023-01-24T01:29:50;2.50;99.90
3528;DHT22;1778;47.966;7.854;2023-01-24T01:30:52;2.50;99.90
3528;DHT22;1778;47.966;7.854;2023-01-24T01:31:54;2.50;99.90
3528;DHT22;1778;47.966;7.854;2023-01-24T01:32:56;2.50;99.90
3528;DHT22;1778;47.966;7.854;2023-01-24T01:33:58;2.50;99.90
3528;DHT22;1778;47.966;7.854;2023-01-24T01:34:59;2.50;99.90
3528;DHT22;1778;47.966;7.854;2023-01-24T01:36:01;2.50;99.90
3528;DHT22;1778;47.966;7.854;2023-01-24T01:37:02;2.50;99.90
3528;DHT22;1778;47.966;7.854;2023-01-24T01:38:04;2.40;99.90
3528;DHT22;1778;47.966;7.854;2023-01-24T01:39:05;2.40;99.90
3528;DHT22;1778;47.966;7.854;2023-01-24T01:40:08;2.50;99.90
3528;DHT22;1778;47.966;7.854;2023-01-24T01:41:13;2.50;99.90
3528;DHT22;1778;47.966;7.854;2023-01-24T01:42:15;2.50;99.90
3528;DHT22;1778;47.966;7.854;2023-01-24T01:43:19;2.50;99.90
3528;DHT22;1778;47.966;7.854;2023-01-24T01:44:24;2.50;99.90
3528;DHT22;1778;47.966;7.854;2023-01-24T01:45:50;2.50;99.90
3528;DHT22;1778;47.966;7.854;2023-01-24T01:46:53;2.50;99.90
3528;DHT22;1778;47.966;7.854;2023-01-24T01:47:55;2.50;99.90
3528;DHT22;1778;47.966;7.854;2023-01-24T01:49:01;2.50;99.90
3528;DHT22;1778;47.966;7.854;2023-01-24T01:50:14;2.50;99.90
3528;DHT22;1778;47.966;7.854;2023-01-24T01:51:35;2.50;99.90
3528;DHT22;1778;47.966;7.854;2023-01-24T01:52:40;2.50;99.90
3528;DHT22;1778;47.966;7.854;2023-01-24T01:53:57;2.50;99.90
3528;DHT22;1778;47.966;7.854;2023-01-24T01:55:06;2.60;99.90
3528;DHT22;1778;47.966;7.854;2023-01-24T01:56:26;2.50;99.90
3528;DHT22;1778;47.966;7.854;2023-01-24T01:57:31;2.60;99.90
3528;DHT22;1778;47.966;7.854;2023-01-24T01:58:33;2.50;99.90
3528;DHT22;1778;47.966;7.854;2023-01-24T01:59:39;2.50;99.90
3528;DHT22;1778;47.966;7.854;2023-01-24T02:00:41;2.50;99.90
3528;DHT22;1778;47.966;7.854;2023-01-24T02:01:53;2.50;99.90
3528;DHT22;1778;47.966;7.854;2023-01-24T02:02:59;2.60;99.90
3528;DHT22;1778;47.966;7.854;2023-01-24T02:04:26;2.50;99.90
3528;DHT22;1778;47.966;7.854;2023-01-24T02:05:30;2.50;99.90
3528;DHT22;1778;47.966;7.854;2023-01-24T02:07:01;2.50;99.90
3528;DHT22;1778;47.966;7.854;2023-01-24T02:08:06;2.60;99.90
3528;DHT22;1778;47.966;7.854;2023-01-24T02:09:10;2.50;99.90
3528;DHT22;1778;47.966;7.854;2023-01-24T02:10:12;2.60;99.90
3528;DHT22;1778;47.966;7.854;2023-01-24T02:11:14;2.60;99.90
3528;DHT22;1778;47.966;7.854;2023-01-24T02:12:43;2.50;99.90
3528;DHT22;1778;47.966;7.854;2023-01-24T02:13:47;2.60;99.90
3528;DHT22;1778;47.966;7.854;2023-01-24T02:14:52;2.50;99.90
3528;DHT22;1778;47.966;7.854;2023-01-24T02:16:14;2.60;99.90
3528;DHT22;1778;47.966;7.854;2023-01-24T02:17:17;2.60;99.90
3528;DHT22;1778;47.966;7.854;2023-01-24T02:18:19;2.60;99.90
3528;DHT22;1778;47.966;7.854;2023-01-24T02:19:45;2.60;99.90
3528;DHT22;1778;47.966;7.854;2023-01-24T02:20:49;2.60;99.90
3528;DHT22;1778;47.966;7.854;2023-01-24T02:21:56;2.60;99.90
3528;DHT22;1778;47.966;7.854;2023-01-24T02:24:32;2.60;99.90
3528;DHT22;1778;47.966;7.854;2023-01-24T02:27:08;2.70;99.90
3528;DHT22;1778;47.966;7.854;2023-01-24T02:28:09;2.70;99.90
3528;DHT22;1778;47.966;7.854;2023-01-24T02:29:12;2.70;99.90
3528;DHT22;1778;47.966;7.854;2023-01-24T02:30:16;2.70;99.90
3528;DHT22;1778;47.966;7.854;2023-01-24T02:31:18;2.70;99.90
3528;DHT22;1778;47.966;7.854;2023-01-24T02:32:19;2.70;99.90
3528;DHT22;1778;47.966;7.854;2023-01-24T02:33:21;2.80;99.90
3528;DHT22;1778;47.966;7.854;2023-01-24T02:34:23;2.80;99.90
3528;DHT22;1778;47.966;7.854;2023-01-24T02:35:29;2.80;99.90
3528;DHT22;1778;47.966;7.854;2023-01-24T02:36:37;2.80;99.90
3528;DHT22;1778;47.966;7.854;2023-01-24T02:37:39;2.80;99.90
3528;DHT22;1778;47.966;7.854;2023-01-24T02:38:44;2.90;99.90
3528;DHT22;1778;47.966;7.854;2023-01-24T02:39:55;2.90;99.90
3528;DHT22;1778;47.966;7.854;2023-01-24T02:40:59;2.90;99.90
3528;DHT22;1778;47.966;7.854;2023-01-24T02:42:13;2.90;99.90
3528;DHT22;1778;47.966;7.854;2023-01-24T02:43:19;2.90;99.90
3528;DHT22;1778;47.966;7.854;2023-01-24T02:44:40;2.90;99.90
3528;DHT22;1778;47.966;7.854;2023-01-24T02:45:44;2.90;99.90
3528;DHT22;1778;47.966;7.854;2023-01-24T02:46:46;2.90;99.90
3528;DHT22;1778;47.966;7.854;2023-01-24T02:47:51;2.90;99.90
3528;DHT22;1778;47.966;7.854;2023-01-24T02:48:53;2.90;99.90
3528;DHT22;1778;47.966;7.854;2023-01-24T02:49:54;2.90;99.90
3528;DHT22;1778;47.966;7.854;2023-01-24T02:50:56;3.00;99.90
3528;DHT22;1778;47.966;7.854;2023-01-24T02:52:16;3.00;99.90
3528;DHT22;1778;47.966;7.854;2023-01-24T02:53:36;3.00;99.90
3528;DHT22;1778;47.966;7.854;2023-01-24T02:54:38;3.00;99.90
3528;DHT22;1778;47.966;7.854;2023-01-24T02:55:40;3.00;99.90
3528;DHT22;1778;47.966;7.854;2023-01-24T02:57:01;3.00;99.90
3528;DHT22;1778;47.966;7.854;2023-01-24T02:58:22;3.00;99.90
3528;DHT22;1778;47.966;7.854;2023-01-24T02:59:23;3.00;99.90
3528;DHT22;1778;47.966;7.854;2023-01-24T03:00:27;3.00;99.90
3528;DHT22;1778;47.966;7.854;2023-01-24T03:01:30;3.00;99.90
3528;DHT22;1778;47.966;7.854;2023-01-24T03:02:32;3.00;99.90
3528;DHT22;1778;47.966;7.854;2023-01-24T03:03:35;3.00;99.90
3528;DHT22;1778;47.966;7.854;2023-01-24T03:04:37;3.00;99.90
3528;DHT22;1778;47.966;7.854;2023-01-24T03:05:40;3.00;99.90
3528;DHT22;1778;47.966;7.854;2023-01-24T03:07:03;3.10;99.90
3528;DHT22;1778;47.966;7.854;2023-01-24T03:08:06;3.00;99.90
3528;DHT22;1778;47.966;7.854;2023-01-24T03:09:08;3.00;99.90
3528;DHT22;1778;47.966;7.854;2023-01-24T03:10:36;3.00;99.90
3528;DHT22;1778;47.966;7.854;2023-01-24T03:11:37;3.10;99.90
3528;DHT22;1778;47.966;7.854;2023-01-24T03:12:39;3.10;99.90
3528;DHT22;1778;47.966;7.854;2023-01-24T03:13:59;3.10;99.90
3528;DHT22;1778;47.966;7.854;2023-01-24T03:15:20;3.10;99.90
3528;DHT22;1778;47.966;7.854;2023-01-24T03:16:41;3.00;99.90
3528;DHT22;1778;47.966;7.854;2023-01-24T03:18:02;3.00;99.90
3528;DHT22;1778;47.966;7.854;2023-01-24T03:19:22;3.10;99.90
3528;DHT22;1778;47.966;7.854;2023-01-24T03:20:47;3.10;99.90
3528;DHT22;1778;47.966;7.854;2023-01-24T03:22:07;3.10;99.90
3528;DHT22;1778;47.966;7.854;2023-01-24T03:23:27;3.10;99.90
3528;DHT22;1778;47.966;7.854;2023-01-24T03:24:46;3.10;99.90
3528;DHT22;1778;47.966;7.854;2023-01-24T03:26:06;3.10;99.90
3528;DHT22;1778;47.966;7.854;2023-01-24T03:27:26;3.00;99.90
3528;DHT22;1778;47.966;7.854;2023-01-24T03:28:51;3.00;99.90
3528;DHT22;1778;47.966;7.854;2023-01-24T03:30:11;3.00;99.90
3528;DHT22;1778;47.966;7.854;2023-01-24T03:31:31;3.00;99.90
3528;DHT22;1778;47.966;7.854;2023-01-24T03:33:01;3.00;99.90
3528;DHT22;1778;47.966;7.854;2023-01-24T03:34:22;2.90;99.90
3528;DHT22;1778;47.966;7.854;2023-01-24T03:35:49;2.90;99.90
3528;DHT22;1778;47.966;7.854;2023-01-24T03:37:04;2.90;99.90
3528;DHT22;1778;47.966;7.854;2023-01-24T03:38:05;2.80;99.90
3528;DHT22;1778;47.966;7.854;2023-01-24T03:39:26;2.80;99.90
3528;DHT22;1778;47.966;7.854;2023-01-24T03:40:46;2.90;99.90
3528;DHT22;1778;47.966;7.854;2023-01-24T03:41:51;2.90;99.90
3528;DHT22;1778;47.966;7.854;2023-01-24T03:42:53;2.80;99.90
3528;DHT22;1778;47.966;7.854;2023-01-24T03:44:00;2.80;99.90
3528;DHT22;1778;47.966;7.854;2023-01-24T03:45:02;2.80;99.90
3528;DHT22;1778;47.966;7.854;2023-01-24T03:46:04;2.80;99.90
3528;DHT22;1778;47.966;7.854;2023-01-24T03:47:18;2.90;99.90
3528;DHT22;1778;47.966;7.854;2023-01-24T03:48:19;2.90;99.90
3528;DHT22;1778;47.966;7.854;2023-01-24T03:49:27;2.90;99.90
3528;DHT22;1778;47.966;7.854;2023-01-24T03:50:48;2.90;99.90
3528;DHT22;1778;47.966;7.854;2023-01-24T03:52:09;2.90;99.90
3528;DHT22;1778;47.966;7.854;2023-01-24T03:53:37;3.00;99.90
3528;DHT22;1778;47.966;7.854;2023-01-24T03:54:39;2.90;99.90
3528;DHT22;1778;47.966;7.854;2023-01-24T03:55:42;2.80;99.90
3528;DHT22;1778;47.966;7.854;2023-01-24T03:56:43;2.90;99.90
3528;DHT22;1778;47.966;7.854;2023-01-24T03:57:45;2.90;99.90
3528;DHT22;1778;47.966;7.854;2023-01-24T03:58:48;2.90;99.90
3528;DHT22;1778;47.966;7.854;2023-01-24T03:59:55;2.90;99.90
3528;DHT22;1778;47.966;7.854;2023-01-24T04:00:58;2.90;99.90
3528;DHT22;1778;47.966;7.854;2023-01-24T04:02:23;2.90;99.90
3528;DHT22;1778;47.966;7.854;2023-01-24T04:03:25;3.00;99.90
3528;DHT22;1778;47.966;7.854;2023-01-24T04:04:26;3.00;99.90
3528;DHT22;1778;47.966;7.854;2023-01-24T04:05:48;3.00;99.90
3528;DHT22;1778;47.966;7.854;2023-01-24T04:06:50;3.00;99.90
3528;DHT22;1778;47.966;7.854;2023-01-24T04:07:54;3.00;99.90
3528;DHT22;1778;47.966;7.854;2023-01-24T04:08:56;3.00;99.90
3528;DHT22;1778;47.966;7.854;2023-01-24T04:09:59;3.00;99.90
3528;DHT22;1778;47.966;7.854;2023-01-24T04:11:03;3.00;99.90
3528;DHT22;1778;47.966;7.854;2023-01-24T04:12:05;2.90;99.90
3528;DHT22;1778;47.966;7.854;2023-01-24T04:13:08;2.90;99.90
3528;DHT22;1778;47.966;7.854;2023-01-24T04:14:10;3.00;99.90
3528;DHT22;1778;47.966;7.854;2023-01-24T04:15:24;3.00;99.90
3528;DHT22;1778;47.966;7.854;2023-01-24T04:16:36;3.00;99.90
3528;DHT22;1778;47.966;7.854;2023-01-24T04:17:45;2.90;99.90
3528;DHT22;1778;47.966;7.854;2023-01-24T04:18:46;2.90;99.90
3528;DHT22;1778;47.966;7.854;2023-01-24T04:19:48;2.90;99.90
3528;DHT22;1778;47.966;7.854;2023-01-24T04:20:50;3.00;99.90
3528;DHT22;1778;47.966;7.854;2023-01-24T04:21:52;2.90;99.90
3528;DHT22;1778;47.966;7.854;2023-01-24T04:22:54;2.90;99.90
3528;DHT22;1778;47.966;7.854;2023-01-24T04:23:56;2.90;99.90
3528;DHT22;1778;47.966;7.854;2023-01-24T04:24:58;2.80;99.90
3528;DHT22;1778;47.966;7.854;2023-01-24T04:26:04;2.90;99.90
3528;DHT22;1778;47.966;7.854;2023-01-24T04:27:07;2.90;99.90
3528;DHT22;1778;47.966;7.854;2023-01-24T04:28:35;2.90;99.90
3528;DHT22;1778;47.966;7.854;2023-01-24T04:29:37;2.90;99.90
3528;DHT22;1778;47.966;7.854;2023-01-24T04:30:39;2.90;99.90
3528;DHT22;1778;47.966;7.854;2023-01-24T04:31:51;2.90;99.90
3528;DHT22;1778;47.966;7.854;2023-01-24T04:33:01;2.90;99.90
3528;DHT22;1778;47.966;7.854;2023-01-24T04:34:03;2.90;99.90
3528;DHT22;1778;47.966;7.854;2023-01-24T04:35:06;3.00;99.90
3528;DHT22;1778;47.966;7.854;2023-01-24T04:36:25;3.00;99.90
3528;DHT22;1778;47.966;7.854;2023-01-24T04:37:27;3.00;99.90
3528;DHT22;1778;47.966;7.854;2023-01-24T04:38:29;3.00;99.90
3528;DHT22;1778;47.966;7.854;2023-01-24T04:39:40;3.10;99.90
3528;DHT22;1778;47.966;7.854;2023-01-24T04:40:57;3.00;99.90
3528;DHT22;1778;47.966;7.854;2023-01-24T04:42:00;3.00;99.90
3528;DHT22;1778;47.966;7.854;2023-01-24T04:43:01;3.10;99.90
3528;DHT22;1778;47.966;7.854;2023-01-24T04:44:03;3.10;99.90
3528;DHT22;1778;47.966;7.854;2023-01-24T04:45:05;3.10;99.90
3528;DHT22;1778;47.966;7.854;2023-01-24T04:46:07;3.10;99.90
3528;DHT22;1778;47.966;7.854;2023-01-24T04:47:26;3.10;99.90
3528;DHT22;1778;47.966;7.854;2023-01-24T04:48:28;3.10;99.90
3528;DHT22;1778;47.966;7.854;2023-01-24T04:49:29;3.10;99.90
3528;DHT22;1778;47.966;7.854;2023-01-24T04:50:30;3.10;99.90
3528;DHT22;1778;47.966;7.854;2023-01-24T04:51:32;3.10;99.90
3528;DHT22;1778;47.966;7.854;2023-01-24T04:52:36;3.10;99.90
3528;DHT22;1778;47.966;7.854;2023-01-24T04:53:41;3.10;99.90
3528;DHT22;1778;47.966;7.854;2023-01-24T04:54:44;3.10;99.90
3528;DHT22;1778;47.966;7.854;2023-01-24T04:55:46;3.00;99.90
3528;DHT22;1778;47.966;7.854;2023-01-24T04:56:48;3.00;99.90
3528;DHT22;1778;47.966;7.854;2023-01-24T04:57:50;3.10;99.90
3528;DHT22;1778;47.966;7.854;2023-01-24T04:58:52;3.00;99.90
3528;DHT22;1778;47.966;7.854;2023-01-24T04:59:53;3.00;99.90
3528;DHT22;1778;47.966;7.854;2023-01-24T05:00:54;3.10;99.90
3528;DHT22;1778;47.966;7.854;2023-01-24T05:02:01;3.10;99.90
3528;DHT22;1778;47.966;7.854;2023-01-24T05:03:15;3.00;99.90
3528;DHT22;1778;47.966;7.854;2023-01-24T05:04:17;3.00;99.90
3528;DHT22;1778;47.966;7.854;2023-01-24T05:05:19;3.10;99.90
3528;DHT22;1778;47.966;7.854;2023-01-24T05:06:21;3.10;99.90
3528;DHT22;1778;47.966;7.854;2023-01-24T05:07:22;3.00;99.90
3528;DHT22;1778;47.966;7.854;2023-01-24T05:08:31;3.00;99.90
3528;DHT22;1778;47.966;7.854;2023-01-24T05:09:33;2.90;99.90
3528;DHT22;1778;47.966;7.854;2023-01-24T05:10:38;3.00;99.90
3528;DHT22;1778;47.966;7.854;2023-01-24T05:11:40;2.90;99.90
3528;DHT22;1778;47.966;7.854;2023-01-24T05:12:42;2.90;99.90
3528;DHT22;1778;47.966;7.854;2023-01-24T05:13:49;2.90;99.90
3528;DHT22;1778;47.966;7.854;2023-01-24T05:14:51;3.00;99.90
3528;DHT22;1778;47.966;7.854;2023-01-24T05:15:53;2.80;99.90
3528;DHT22;1778;47.966;7.854;2023-01-24T05:16:56;2.80;99.90
3528;DHT22;1778;47.966;7.854;2023-01-24T05:17:57;2.80;99.90
3528;DHT22;1778;47.966;7.854;2023-01-24T05:18:59;2.80;99.90
3528;DHT22;1778;47.966;7.854;2023-01-24T05:20:02;2.70;99.90
3528;DHT22;1778;47.966;7.854;2023-01-24T05:21:08;2.80;99.90
3528;DHT22;1778;47.966;7.854;2023-01-24T05:22:11;2.70;99.90
3528;DHT22;1778;47.966;7.854;2023-01-24T05:23:16;2.70;99.90
3528;DHT22;1778;47.966;7.854;2023-01-24T05:24:21;2.70;99.90
3528;DHT22;1778;47.966;7.854;2023-01-24T05:25:23;2.70;99.90
3528;DHT22;1778;47.966;7.854;2023-01-24T05:26:26;2.70;99.90
3528;DHT22;1778;47.966;7.854;2023-01-24T05:27:28;2.70;99.90
3528;DHT22;1778;47.966;7.854;2023-01-24T05:28:35;2.70;99.90
3528;DHT22;1778;47.966;7.854;2023-01-24T05:29:37;2.70;99.90
3528;DHT22;1778;47.966;7.854;2023-01-24T05:30:38;2.70;99.90
3528;DHT22;1778;47.966;7.854;2023-01-24T05:31:51;2.80;99.90
3528;DHT22;1778;47.966;7.854;2023-01-24T05:32:57;2.80;99.90
3528;DHT22;1778;47.966;7.854;2023-01-24T05:33:59;2.80;99.90
3528;DHT22;1778;47.966;7.854;2023-01-24T05:35:00;2.80;99.90
3528;DHT22;1778;47.966;7.854;2023-01-24T05:36:08;2.80;99.90
3528;DHT22;1778;47.966;7.854;2023-01-24T05:37:11;2.80;99.90
3528;DHT22;1778;47.966;7.854;2023-01-24T05:38:16;2.80;99.90
3528;DHT22;1778;47.966;7.854;2023-01-24T05:39:18;2.80;99.90
3528;DHT22;1778;47.966;7.854;2023-01-24T05:40:21;2.90;99.90
3528;DHT22;1778;47.966;7.854;2023-01-24T05:41:22;2.90;99.90
3528;DHT22;1778;47.966;7.854;2023-01-24T05:42:26;2.90;99.90
3528;DHT22;1778;47.966;7.854;2023-01-24T05:43:29;2.80;99.90
3528;DHT22;1778;47.966;7.854;2023-01-24T05:44:31;2.80;99.90
3528;DHT22;1778;47.966;7.854;2023-01-24T05:45:34;2.90;99.90
3528;DHT22;1778;47.966;7.854;2023-01-24T05:46:38;3.00;99.90
3528;DHT22;1778;47.966;7.854;2023-01-24T05:47:47;3.00;99.90
3528;DHT22;1778;47.966;7.854;2023-01-24T05:48:52;3.00;99.90
3528;DHT22;1778;47.966;7.854;2023-01-24T05:49:54;2.90;99.90
3528;DHT22;1778;47.966;7.854;2023-01-24T05:51:02;3.00;99.90
3528;DHT22;1778;47.966;7.854;2023-01-24T05:52:03;2.90;99.90
3528;DHT22;1778;47.966;7.854;2023-01-24T05:53:20;3.00;99.90
3528;DHT22;1778;47.966;7.854;2023-01-24T05:54:21;2.90;99.90
3528;DHT22;1778;47.966;7.854;2023-01-24T05:55:31;3.00;99.90
3528;DHT22;1778;47.966;7.854;2023-01-24T05:56:33;2.90;99.90
3528;DHT22;1778;47.966;7.854;2023-01-24T05:57:35;3.00;99.90
3528;DHT22;1778;47.966;7.854;2023-01-24T05:58:57;2.90;99.90
3528;DHT22;1778;47.966;7.854;2023-01-24T05:59:59;2.90;99.90
3528;DHT22;1778;47.966;7.854;2023-01-24T06:01:01;2.90;99.90
3528;DHT22;1778;47.966;7.854;2023-01-24T06:02:11;2.90;99.90
3528;DHT22;1778;47.966;7.854;2023-01-24T06:03:13;2.80;99.90
3528;DHT22;1778;47.966;7.854;2023-01-24T06:04:15;2.80;99.90
3528;DHT22;1778;47.966;7.854;2023-01-24T06:05:18;2.80;99.90
3528;DHT22;1778;47.966;7.854;2023-01-24T06:06:22;2.80;99.90
3528;DHT22;1778;47.966;7.854;2023-01-24T06:07:24;2.80;99.90
3528;DHT22;1778;47.966;7.854;2023-01-24T06:08:25;2.80;99.90
3528;DHT22;1778;47.966;7.854;2023-01-24T06:09:27;2.90;99.90
3528;DHT22;1778;47.966;7.854;2023-01-24T06:10:29;2.90;99.90
3528;DHT22;1778;47.966;7.854;2023-01-24T06:11:43;2.90;99.90
3528;DHT22;1778;47.966;7.854;2023-01-24T06:12:49;2.90;99.90
3528;DHT22;1778;47.966;7.854;2023-01-24T06:13:53;2.90;99.90
3528;DHT22;1778;47.966;7.854;2023-01-24T06:14:55;2.90;99.90
3528;DHT22;1778;47.966;7.854;2023-01-24T06:16:04;2.90;99.90
3528;DHT22;1778;47.966;7.854;2023-01-24T06:17:07;2.90;99.90
3528;DHT22;1778;47.966;7.854;2023-01-24T06:18:13;2.90;99.90
3528;DHT22;1778;47.966;7.854;2023-01-24T06:19:17;2.80;99.90
3528;DHT22;1778;47.966;7.854;2023-01-24T06:20:20;2.80;99.90
3528;DHT22;1778;47.966;7.854;2023-01-24T06:23:03;2.70;99.90
3528;DHT22;1778;47.966;7.854;2023-01-24T06:24:22;2.70;99.90
3528;DHT22;1778;47.966;7.854;2023-01-24T06:25:34;2.60;99.90
3528;DHT22;1778;47.966;7.854;2023-01-24T06:26:36;2.70;99.90
3528;DHT22;1778;47.966;7.854;2023-01-24T06:27:38;2.70;99.90
3528;DHT22;1778;47.966;7.854;2023-01-24T06:28:40;2.70;99.90
3528;DHT22;1778;47.966;7.854;2023-01-24T06:29:41;2.70;99.90
3528;DHT22;1778;47.966;7.854;2023-01-24T06:31:03;2.70;99.90
3528;DHT22;1778;47.966;7.854;2023-01-24T06:36:14;2.60;99.90
3528;DHT22;1778;47.966;7.854;2023-01-24T06:37:51;2.50;99.90
3528;DHT22;1778;47.966;7.854;2023-01-24T06:38:53;2.60;99.90
3528;DHT22;1778;47.966;7.854;2023-01-24T06:39:55;2.50;99.90
3528;DHT22;1778;47.966;7.854;2023-01-24T06:41:00;2.50;99.90
3528;DHT22;1778;47.966;7.854;2023-01-24T06:42:02;2.50;99.90
3528;DHT22;1778;47.966;7.854;2023-01-24T06:43:04;2.50;99.90
3528;DHT22;1778;47.966;7.854;2023-01-24T06:44:07;2.50;99.90
3528;DHT22;1778;47.966;7.854;2023-01-24T06:45:09;2.50;99.90
3528;DHT22;1778;47.966;7.854;2023-01-24T06:46:12;2.50;99.90
3528;DHT22;1778;47.966;7.854;2023-01-24T06:47:15;2.40;99.90
3528;DHT22;1778;47.966;7.854;2023-01-24T06:48:17;2.40;99.90
3528;DHT22;1778;47.966;7.854;2023-01-24T06:49:18;2.50;99.90
3528;DHT22;1778;47.966;7.854;2023-01-24T06:50:22;2.70;99.90
3528;DHT22;1778;47.966;7.854;2023-01-24T06:51:24;2.80;99.90
3528;DHT22;1778;47.966;7.854;2023-01-24T06:52:25;2.90;99.90
3528;DHT22;1778;47.966;7.854;2023-01-24T06:53:26;2.90;99.90
3528;DHT22;1778;47.966;7.854;2023-01-24T06:54:28;3.00;99.90
3528;DHT22;1778;47.966;7.854;2023-01-24T06:55:30;3.10;99.90
3528;DHT22;1778;47.966;7.854;2023-01-24T06:56:31;3.10;99.90
3528;DHT22;1778;47.966;7.854;2023-01-24T06:57:33;3.10;99.90
3528;DHT22;1778;47.966;7.854;2023-01-24T06:58:35;3.00;99.90
3528;DHT22;1778;47.966;7.854;2023-01-24T06:59:37;2.90;99.90
3528;DHT22;1778;47.966;7.854;2023-01-24T07:00:38;2.90;99.90
3528;DHT22;1778;47.966;7.854;2023-01-24T07:01:39;3.00;99.90
3528;DHT22;1778;47.966;7.854;2023-01-24T07:02:41;3.00;99.90
3528;DHT22;1778;47.966;7.854;2023-01-24T07:03:43;3.10;99.90
3528;DHT22;1778;47.966;7.854;2023-01-24T07:04:44;3.20;99.90
3528;DHT22;1778;47.966;7.854;2023-01-24T07:05:47;3.20;99.90
3528;DHT22;1778;47.966;7.854;2023-01-24T07:06:49;3.10;99.90
3528;DHT22;1778;47.966;7.854;2023-01-24T07:07:54;3.00;99.90
3528;DHT22;1778;47.966;7.854;2023-01-24T07:08:55;3.00;99.90
3528;DHT22;1778;47.966;7.854;2023-01-24T07:10:00;3.00;99.90
3528;DHT22;1778;47.966;7.854;2023-01-24T07:11:01;3.00;99.90
3528;DHT22;1778;47.966;7.854;2023-01-24T07:12:03;3.00;99.90
3528;DHT22;1778;47.966;7.854;2023-01-24T07:13:04;3.00;99.90
3528;DHT22;1778;47.966;7.854;2023-01-24T07:14:06;3.00;99.90
3528;DHT22;1778;47.966;7.854;2023-01-24T07:15:07;3.00;99.90
3528;DHT22;1778;47.966;7.854;2023-01-24T07:16:09;3.10;99.90
3528;DHT22;1778;47.966;7.854;2023-01-24T07:17:11;3.20;99.90
3528;DHT22;1778;47.966;7.854;2023-01-24T07:18:13;3.30;99.90
3528;DHT22;1778;47.966;7.854;2023-01-24T07:19:18;3.40;99.90
3528;DHT22;1778;47.966;7.854;2023-01-24T07:20:20;3.50;99.90
3528;DHT22;1778;47.966;7.854;2023-01-24T07:21:22;3.60;99.90
3528;DHT22;1778;47.966;7.854;2023-01-24T07:22:24;3.50;99.90
3528;DHT22;1778;47.966;7.854;2023-01-24T07:23:27;3.50;99.90